sensor_id;sensor_type;location;lat;lon;timestamp;pressure;altitude;pressure_sealevel;temperature;humidity
68580;BME280;55555;52.136;5.424;2022-09-09T00:04:33;100834.53;;;14.46;100.00
68580;BME280;55555;52.136;5.424;2022-09-09T00:07:19;100827.31;;;14.40;100.00
68580;BME280;55555;52.136;5.424;2022-09-09T00:13:14;100818.84;;;14.48;100.00
68580;BME280;55555;52.136;5.424;2022-09-09T00:15:59;100820.84;;;14.41;100.00
68580;BME280;55555;52.136;5.424;2022-09-09T00:19:04;100814.84;;;14.39;100.00
68580;BME280;55555;52.136;5.424;2022-09-09T00:21:57;100820.16;;;14.34;100.00
68580;BME280;55555;52.136;5.424;2022-09-09T00:24:43;100812.72;;;14.41;100.00
68580;BME280;55555;52.136;5.424;2022-09-09T00:27:35;100814.84;;;14.39;100.00
68580;BME280;55555;52.136;5.424;2022-09-09T00:30:21;100815.91;;;14.38;100.00
68580;BME280;55555;52.136;5.424;2022-09-09T00:32:54;100818.59;;;14.38;100.00
68580;BME280;55555;52.136;5.424;2022-09-09T00:35:31;100818.88;;;14.24;100.00
68580;BME280;55555;52.136;5.424;2022-09-09T00:38:35;100824.78;;;14.21;100.00
68580;BME280;55555;52.136;5.424;2022-09-09T00:44:34;100806.28;;;14.18;100.00
68580;BME280;55555;52.136;5.424;2022-09-09T00:50:13;100808.75;;;14.20;100.00
68580;BME280;55555;52.136;5.424;2022-09-09T00:56:14;100809.47;;;14.15;100.00
68580;BME280;55555;52.136;5.424;2022-09-09T01:01:30;100806.47;;;14.00;100.00
68580;BME280;55555;52.136;5.424;2022-09-09T01:03:57;100816.06;;;14.08;100.00
68580;BME280;55555;52.136;5.424;2022-09-09T01:06:36;100820.25;;;13.99;100.00
68580;BME280;55555;52.136;5.424;2022-09-09T01:09:07;100818.00;;;13.96;100.00
68580;BME280;55555;52.136;5.424;2022-09-09T01:12:02;100828.03;;;13.95;100.00
68580;BME280;55555;52.136;5.424;2022-09-09T01:15:08;100824.72;;;13.93;100.00
68580;BME280;55555;52.136;5.424;2022-09-09T01:17:53;100820.03;;;13.88;100.00
68580;BME280;55555;52.136;5.424;2022-09-09T01:20:29;100820.84;;;13.89;100.00
68580;BME280;55555;52.136;5.424;2022-09-09T01:28:21;100806.84;;;13.80;100.00
68580;BME280;55555;52.136;5.424;2022-09-09T01:30:51;100814.72;;;13.82;100.00
68580;BME280;55555;52.136;5.424;2022-09-09T01:33:18;100804.84;;;13.76;100.00
68580;BME280;55555;52.136;5.424;2022-09-09T01:35:52;100796.47;;;13.66;100.00
68580;BME280;55555;52.136;5.424;2022-09-09T01:38:21;100800.72;;;13.73;100.00
68580;BME280;55555;52.136;5.424;2022-09-09T01:40:49;100802.84;;;13.71;100.00
68580;BME280;55555;52.136;5.424;2022-09-09T01:43:20;100802.59;;;13.73;100.00
68580;BME280;55555;52.136;5.424;2022-09-09T01:45:49;100799.66;;;13.63;100.00
68580;BME280;55555;52.136;5.424;2022-09-09T01:48:20;100797.78;;;13.63;100.00
68580;BME280;55555;52.136;5.424;2022-09-09T01:50:48;100808.72;;;13.56;100.00
68580;BME280;55555;52.136;5.424;2022-09-09T01:53:17;100801.19;;;13.58;100.00
68580;BME280;55555;52.136;5.424;2022-09-09T02:02:26;100800.97;;;13.48;100.00
68580;BME280;55555;52.136;5.424;2022-09-09T02:05:03;100797.22;;;13.49;100.00
68580;BME280;55555;52.136;5.424;2022-09-09T02:07:47;100789.09;;;13.49;100.00
68580;BME280;55555;52.136;5.424;2022-09-09T02:10:20;100794.84;;;13.41;100.00
68580;BME280;55555;52.136;5.424;2022-09-09T02:13:01;100783.81;;;13.43;100.00
68580;BME280;55555;52.136;5.424;2022-09-09T02:18:15;100784.38;;;13.33;100.00
68580;BME280;55555;52.136;5.424;2022-09-09T02:20:45;100780.97;;;13.38;100.00
68580;BME280;55555;52.136;5.424;2022-09-09T02:23:14;100783.09;;;13.36;100.00
68580;BME280;55555;52.136;5.424;2022-09-09T02:25:42;100783.91;;;13.36;100.00
68580;BME280;55555;52.136;5.424;2022-09-09T02:28:11;100780.63;;;13.34;100.00
68580;BME280;55555;52.136;5.424;2022-09-09T02:30:41;100781.09;;;13.31;100.00
68580;BME280;55555;52.136;5.424;2022-09-09T02:33:11;100777.44;;;13.25;100.00
68580;BME280;55555;52.136;5.424;2022-09-09T02:35:40;100778.59;;;13.30;100.00
68580;BME280;55555;52.136;5.424;2022-09-09T02:38:12;100779.19;;;13.20;100.00
68580;BME280;55555;52.136;5.424;2022-09-09T02:40:40;100777.44;;;13.25;100.00
68580;BME280;55555;52.136;5.424;2022-09-09T02:43:07;100778.25;;;13.26;100.00
68580;BME280;55555;52.136;5.424;2022-09-09T02:45:47;100771.19;;;13.25;100.00
68580;BME280;55555;52.136;5.424;2022-09-09T02:51:24;100781.06;;;13.19;100.00
68580;BME280;55555;52.136;5.424;2022-09-09T02:56:52;100775.75;;;13.13;100.00
68580;BME280;55555;52.136;5.424;2022-09-09T02:59:21;100769.38;;;13.07;100.00
68580;BME280;55555;52.136;5.424;2022-09-09T03:01:50;100773.97;;;13.07;100.00
68580;BME280;55555;52.136;5.424;2022-09-09T03:04:17;100771.13;;;13.02;100.00
68580;BME280;55555;52.136;5.424;2022-09-09T03:06:44;100767.13;;;13.04;100.00
68580;BME280;55555;52.136;5.424;2022-09-09T03:09:11;100773.75;;;12.97;100.00
68580;BME280;55555;52.136;5.424;2022-09-09T03:11:38;100768.91;;;12.99;100.00
68580;BME280;55555;52.136;5.424;2022-09-09T03:14:05;100764.06;;;13.01;100.00
68580;BME280;55555;52.136;5.424;2022-09-09T03:16:32;100770.31;;;13.01;100.00
68580;BME280;55555;52.136;5.424;2022-09-09T03:19:01;100770.56;;;13.00;100.00
68580;BME280;55555;52.136;5.424;2022-09-09T03:21:27;100773.00;;;12.89;100.00
68580;BME280;55555;52.136;5.424;2022-09-09T03:23:54;100785.84;;;12.94;100.00
68580;BME280;55555;52.136;5.424;2022-09-09T03:26:23;100769.38;;;12.96;100.00
68580;BME280;55555;52.136;5.424;2022-09-09T03:28:50;100772.56;;;12.92;100.00
68580;BME280;55555;52.136;5.424;2022-09-09T03:31:18;100764.91;;;12.89;100.00
68580;BME280;55555;52.136;5.424;2022-09-09T03:33:45;100770.44;;;12.95;100.00
68580;BME280;55555;52.136;5.424;2022-09-09T03:36:14;100766.66;;;12.84;100.00
68580;BME280;55555;52.136;5.424;2022-09-09T03:38:41;100776.41;;;12.85;100.00
68580;BME280;55555;52.136;5.424;2022-09-09T03:41:08;100771.97;;;12.90;100.00
68580;BME280;55555;52.136;5.424;2022-09-09T03:43:35;100776.78;;;12.88;100.00
68580;BME280;55555;52.136;5.424;2022-09-09T03:46:03;100773.00;;;12.89;100.00
68580;BME280;55555;52.136;5.424;2022-09-09T03:48:30;100776.50;;;12.78;100.00
68580;BME280;55555;52.136;5.424;2022-09-09T03:50:58;100768.06;;;12.86;100.00
68580;BME280;55555;52.136;5.424;2022-09-09T03:53:27;100763.72;;;12.85;100.00
68580;BME280;55555;52.136;5.424;2022-09-09T03:55:56;100762.66;;;12.86;100.00
68580;BME280;55555;52.136;5.424;2022-09-09T03:58:26;100760.19;;;12.85;100.00
68580;BME280;55555;52.136;5.424;2022-09-09T04:03:23;100759.34;;;12.84;100.00
68580;BME280;55555;52.136;5.424;2022-09-09T04:05:55;100749.59;;;12.83;100.00
68580;BME280;55555;52.136;5.424;2022-09-09T04:08:23;100764.88;;;12.78;100.00
68580;BME280;55555;52.136;5.424;2022-09-09T04:10:53;100760.88;;;12.80;100.00
68580;BME280;55555;52.136;5.424;2022-09-09T04:13:23;100766.75;;;12.77;100.00
68580;BME280;55555;52.136;5.424;2022-09-09T04:15:56;100764.03;;;12.77;100.00
68580;BME280;55555;52.136;5.424;2022-09-09T04:18:24;100769.81;;;12.81;100.00
68580;BME280;55555;52.136;5.424;2022-09-09T04:20:52;100761.56;;;12.76;100.00
68580;BME280;55555;52.136;5.424;2022-09-09T04:23:21;100756.63;;;12.73;100.00
68580;BME280;55555;52.136;5.424;2022-09-09T04:25:52;100751.31;;;12.66;100.00
68580;BME280;55555;52.136;5.424;2022-09-09T04:28:22;100753.69;;;12.74;100.00
68580;BME280;55555;52.136;5.424;2022-09-09T04:30:50;100753.91;;;12.73;100.00
68580;BME280;55555;52.136;5.424;2022-09-09T04:33:18;100760.50;;;12.77;100.00
68580;BME280;55555;52.136;5.424;2022-09-09T04:35:47;100750.41;;;12.72;100.00
68580;BME280;55555;52.136;5.424;2022-09-09T04:38:16;100758.63;;;12.77;100.00
68580;BME280;55555;52.136;5.424;2022-09-09T04:40:46;100752.41;;;12.77;100.00
68580;BME280;55555;52.136;5.424;2022-09-09T04:43:13;100745.72;;;12.79;100.00
68580;BME280;55555;52.136;5.424;2022-09-09T04:45:47;100747.72;;;12.84;100.00
68580;BME280;55555;52.136;5.424;2022-09-09T04:48:15;100736.91;;;12.84;100.00
68580;BME280;55555;52.136;5.424;2022-09-09T04:50:42;100729.97;;;12.88;100.00
68580;BME280;55555;52.136;5.424;2022-09-09T04:53:09;100733.38;;;12.83;100.00
68580;BME280;55555;52.136;5.424;2022-09-09T04:55:36;100730.81;;;12.88;100.00
68580;BME280;55555;52.136;5.424;2022-09-09T04:58:05;100726.34;;;12.94;100.00
68580;BME280;55555;52.136;5.424;2022-09-09T05:00:34;100730.34;;;12.91;100.00
68580;BME280;55555;52.136;5.424;2022-09-09T05:03:03;100744.69;;;12.92;100.00
68580;BME280;55555;52.136;5.424;2022-09-09T05:05:32;100743.03;;;12.91;100.00
68580;BME280;55555;52.136;5.424;2022-09-09T05:08:10;100743.72;;;12.86;100.00
68580;BME280;55555;52.136;5.424;2022-09-09T05:10:38;100746.78;;;12.90;100.00
68580;BME280;55555;52.136;5.424;2022-09-09T05:13:05;100741.38;;;12.90;100.00
68580;BME280;55555;52.136;5.424;2022-09-09T05:15:32;100744.19;;;12.83;100.00
68580;BME280;55555;52.136;5.424;2022-09-09T05:18:00;100741.38;;;12.90;100.00
68580;BME280;55555;52.136;5.424;2022-09-09T05:20:28;100744.31;;;12.88;100.00
68580;BME280;55555;52.136;5.424;2022-09-09T05:22:56;100741.38;;;12.90;100.00
68580;BME280;55555;52.136;5.424;2022-09-09T05:25:24;100736.81;;;12.90;100.00
68580;BME280;55555;52.136;5.424;2022-09-09T05:27:54;100733.16;;;12.85;100.00
68580;BME280;55555;52.136;5.424;2022-09-09T05:30:21;100727.75;;;12.85;100.00
68580;BME280;55555;52.136;5.424;2022-09-09T05:32:55;100729.97;;;12.88;100.00
68580;BME280;55555;52.136;5.424;2022-09-09T05:35:22;100718.56;;;12.86;100.00
68580;BME280;55555;52.136;5.424;2022-09-09T05:37:49;100722.00;;;12.93;100.00
68580;BME280;55555;52.136;5.424;2022-09-09T05:40:16;100725.53;;;12.93;100.00
68580;BME280;55555;52.136;5.424;2022-09-09T05:42:43;100723.41;;;12.96;100.00
68580;BME280;55555;52.136;5.424;2022-09-09T05:45:10;100730.94;;;12.93;100.00
68580;BME280;55555;52.136;5.424;2022-09-09T05:47:37;100727.03;;;12.89;100.00
68580;BME280;55555;52.136;5.424;2022-09-09T05:50:04;100727.16;;;12.95;100.00
68580;BME280;55555;52.136;5.424;2022-09-09T05:52:31;100723.41;;;12.96;100.00
68580;BME280;55555;52.136;5.424;2022-09-09T05:54:59;100737.03;;;13.01;100.00
68580;BME280;55555;52.136;5.424;2022-09-09T05:57:26;100725.97;;;13.02;100.00
68580;BME280;55555;52.136;5.424;2022-09-09T05:59:52;100725.16;;;13.02;100.00
68580;BME280;55555;52.136;5.424;2022-09-09T06:02:19;100736.56;;;13.04;100.00
68580;BME280;55555;52.136;5.424;2022-09-09T06:04:47;100741.84;;;13.10;100.00
68580;BME280;55555;52.136;5.424;2022-09-09T06:07:13;100743.97;;;13.08;100.00
68580;BME280;55555;52.136;5.424;2022-09-09T06:09:40;100742.69;;;13.11;100.00
68580;BME280;55555;52.136;5.424;2022-09-09T06:12:08;100738.00;;;13.18;100.00
68580;BME280;55555;52.136;5.424;2022-09-09T06:14:35;100740.25;;;13.21;100.00
68580;BME280;55555;52.136;5.424;2022-09-09T06:17:03;100742.50;;;13.24;100.00
68580;BME280;55555;52.136;5.424;2022-09-09T06:19:30;100740.97;;;13.28;100.00
68580;BME280;55555;52.136;5.424;2022-09-09T06:21:57;100741.44;;;13.37;100.00
68580;BME280;55555;52.136;5.424;2022-09-09T06:24:24;100728.84;;;13.42;100.00
68580;BME280;55555;52.136;5.424;2022-09-09T06:26:51;100742.50;;;13.47;100.00
68580;BME280;55555;52.136;5.424;2022-09-09T06:29:19;100735.28;;;13.53;100.00
68580;BME280;55555;52.136;5.424;2022-09-09T06:31:46;100733.97;;;13.55;100.00
68580;BME280;55555;52.136;5.424;2022-09-09T06:34:14;100733.28;;;13.60;100.00
68580;BME280;55555;52.136;5.424;2022-09-09T06:36:41;100725.03;;;13.67;100.00
68580;BME280;55555;52.136;5.424;2022-09-09T06:39:08;100719.25;;;13.75;100.00
68580;BME280;55555;52.136;5.424;2022-09-09T06:41:40;100720.53;;;13.84;100.00
68580;BME280;55555;52.136;5.424;2022-09-09T06:44:08;100716.97;;;13.95;100.00
68580;BME280;55555;52.136;5.424;2022-09-09T06:46:37;100729.63;;;14.06;100.00
68580;BME280;55555;52.136;5.424;2022-09-09T06:49:05;100722.53;;;14.17;100.00
68580;BME280;55555;52.136;5.424;2022-09-09T06:51:35;100722.97;;;14.25;100.00
68580;BME280;55555;52.136;5.424;2022-09-09T06:54:10;100727.28;;;14.38;100.00
68580;BME280;55555;52.136;5.424;2022-09-09T06:56:39;100724.44;;;14.45;100.00
68580;BME280;55555;52.136;5.424;2022-09-09T06:59:09;100729.78;;;14.56;100.00
68580;BME280;55555;52.136;5.424;2022-09-09T07:01:38;100718.94;;;14.56;100.00
68580;BME280;55555;52.136;5.424;2022-09-09T07:04:21;100726.44;;;14.66;100.00
68580;BME280;55555;52.136;5.424;2022-09-09T07:06:48;100725.34;;;14.67;100.00
68580;BME280;55555;52.136;5.424;2022-09-09T07:09:15;100725.03;;;14.80;100.00
68580;BME280;55555;52.136;5.424;2022-09-09T07:11:45;100728.66;;;14.86;100.00
68580;BME280;55555;52.136;5.424;2022-09-09T07:14:14;100721.19;;;14.93;100.00
68580;BME280;55555;52.136;5.424;2022-09-09T07:16:42;100719.38;;;14.99;100.00
68580;BME280;55555;52.136;5.424;2022-09-09T07:19:11;100726.00;;;15.08;100.00
68580;BME280;55555;52.136;5.424;2022-09-09T07:21:40;100723.81;;;15.05;100.00
68580;BME280;55555;52.136;5.424;2022-09-09T07:24:08;100734.25;;;15.13;100.00
68580;BME280;55555;52.136;5.424;2022-09-09T07:26:37;100730.53;;;15.19;100.00
68580;BME280;55555;52.136;5.424;2022-09-09T07:29:05;100731.44;;;15.24;100.00
68580;BME280;55555;52.136;5.424;2022-09-09T07:31:36;100728.66;;;15.19;100.00
68580;BME280;55555;52.136;5.424;2022-09-09T07:34:05;100735.88;;;15.14;100.00
68580;BME280;55555;52.136;5.424;2022-09-09T07:36:34;100733.75;;;15.16;100.00
68580;BME280;55555;52.136;5.424;2022-09-09T07:39:09;100749.13;;;15.10;100.00
68580;BME280;55555;52.136;5.424;2022-09-09T07:41:46;100740.81;;;15.17;100.00
68580;BME280;55555;52.136;5.424;2022-09-09T07:44:19;100746.00;;;15.18;100.00
68580;BME280;55555;52.136;5.424;2022-09-09T07:46:48;100733.09;;;15.26;100.00
68580;BME280;55555;52.136;5.424;2022-09-09T07:49:15;100733.22;;;15.36;100.00
68580;BME280;55555;52.136;5.424;2022-09-09T07:51:51;100737.50;;;15.48;100.00
68580;BME280;55555;52.136;5.424;2022-09-09T07:54:19;100719.13;;;15.55;100.00
68580;BME280;55555;52.136;5.424;2022-09-09T07:56:46;100729.06;;;15.67;100.00
68580;BME280;55555;52.136;5.424;2022-09-09T07:59:13;100731.28;;;15.70;100.00
68580;BME280;55555;52.136;5.424;2022-09-09T08:01:43;100733.81;;;15.76;100.00
68580;BME280;55555;52.136;5.424;2022-09-09T08:04:15;100730.03;;;15.77;100.00
68580;BME280;55555;52.136;5.424;2022-09-09T08:06:48;100730.16;;;15.87;100.00
68580;BME280;55555;52.136;5.424;2022-09-09T08:09:20;100734.06;;;15.75;100.00
68580;BME280;55555;52.136;5.424;2022-09-09T08:11:47;100732.81;;;15.82;100.00
68580;BME280;55555;52.136;5.424;2022-09-09T08:14:14;100746.25;;;15.72;100.00
68580;BME280;55555;52.136;5.424;2022-09-09T08:16:43;100735.91;;;15.91;100.00
68580;BME280;55555;52.136;5.424;2022-09-09T08:19:12;100739.75;;;15.73;100.00
68580;BME280;55555;52.136;5.424;2022-09-09T08:21:42;100743.09;;;15.80;100.00
68580;BME280;55555;52.136;5.424;2022-09-09T08:24:11;100737.34;;;15.77;100.00
68580;BME280;55555;52.136;5.424;2022-09-09T08:26:42;100750.22;;;15.65;100.00
68580;BME280;55555;52.136;5.424;2022-09-09T08:29:11;100749.00;;;15.55;100.00
68580;BME280;55555;52.136;5.424;2022-09-09T08:31:42;100739.44;;;15.70;100.00
68580;BME280;55555;52.136;5.424;2022-09-09T08:34:11;100755.09;;;15.63;100.00
68580;BME280;55555;52.136;5.424;2022-09-09T08:36:40;100751.16;;;15.53;100.00
68580;BME280;55555;52.136;5.424;2022-09-09T08:39:10;100758.22;;;15.54;100.00
68580;BME280;55555;52.136;5.424;2022-09-09T08:45:29;100757.50;;;15.59;99.83
68580;BME280;55555;52.136;5.424;2022-09-09T08:48:22;100759.41;;;15.59;100.00
68580;BME280;55555;52.136;5.424;2022-09-09T08:51:12;100765.53;;;15.54;100.00
68580;BME280;55555;52.136;5.424;2022-09-09T08:53:46;100762.00;;;15.53;100.00
68580;BME280;55555;52.136;5.424;2022-09-09T08:56:18;100763.81;;;15.65;100.00
68580;BME280;55555;52.136;5.424;2022-09-09T08:58:50;100769.88;;;15.72;100.00
68580;BME280;55555;52.136;5.424;2022-09-09T09:07:15;100762.13;;;15.80;99.99
68580;BME280;55555;52.136;5.424;2022-09-09T09:10:19;100768.31;;;15.76;100.00
68580;BME280;55555;52.136;5.424;2022-09-09T09:13:38;100768.56;;;15.74;99.41
68580;BME280;55555;52.136;5.424;2022-09-09T09:16:51;100774.13;;;15.84;99.43
68580;BME280;55555;52.136;5.424;2022-09-09T09:19:15;100771.91;;;15.81;100.00
68580;BME280;55555;52.136;5.424;2022-09-09T09:21:56;100771.75;;;15.88;99.11
68580;BME280;55555;52.136;5.424;2022-09-09T09:27:27;100783.03;;;15.80;98.57
68580;BME280;55555;52.136;5.424;2022-09-09T09:35:49;100780.06;;;15.81;98.36
68580;BME280;55555;52.136;5.424;2022-09-09T09:38:22;100768.44;;;15.86;99.30
68580;BME280;55555;52.136;5.424;2022-09-09T09:41:10;100777.09;;;15.83;98.41
68580;BME280;55555;52.136;5.424;2022-09-09T09:43:40;100772.81;;;15.87;98.97
68580;BME280;55555;52.136;5.424;2022-09-09T09:46:23;100770.16;;;15.92;99.44
68580;BME280;55555;52.136;5.424;2022-09-09T09:49:00;100771.22;;;15.91;98.99
68580;BME280;55555;52.136;5.424;2022-09-09T09:51:35;100766.38;;;15.93;99.32
68580;BME280;55555;52.136;5.424;2022-09-09T09:54:24;100768.66;;;16.01;97.70
68580;BME280;55555;52.136;5.424;2022-09-09T09:56:55;100772.75;;;16.04;96.19
68580;BME280;55555;52.136;5.424;2022-09-09T10:02:20;100777.38;;;16.03;98.88
68580;BME280;55555;52.136;5.424;2022-09-09T10:05:13;100771.22;;;16.13;96.74
68580;BME280;55555;52.136;5.424;2022-09-09T10:07:42;100769.78;;;16.05;97.52
68580;BME280;55555;52.136;5.424;2022-09-09T10:10:29;100768.16;;;16.04;97.84
68580;BME280;55555;52.136;5.424;2022-09-09T10:19:07;100764.44;;;16.15;98.61
68580;BME280;55555;52.136;5.424;2022-09-09T10:25:03;100762.41;;;16.01;98.17
68580;BME280;55555;52.136;5.424;2022-09-09T10:33:51;100776.88;;;16.06;97.39
68580;BME280;55555;52.136;5.424;2022-09-09T10:36:47;100780.53;;;15.95;99.13
68580;BME280;55555;52.136;5.424;2022-09-09T10:39:35;100784.72;;;16.03;100.00
68580;BME280;55555;52.136;5.424;2022-09-09T10:42:14;100782.16;;;15.96;100.00
68580;BME280;55555;52.136;5.424;2022-09-09T10:45:07;100781.16;;;16.02;100.00
68580;BME280;55555;52.136;5.424;2022-09-09T10:50:52;100780.97;;;15.87;100.00
68580;BME280;55555;52.136;5.424;2022-09-09T10:53:37;100782.03;;;15.86;100.00
68580;BME280;55555;52.136;5.424;2022-09-09T10:56:13;100778.81;;;15.89;100.00
68580;BME280;55555;52.136;5.424;2022-09-09T10:59:14;100775.84;;;15.91;100.00
68580;BME280;55555;52.136;5.424;2022-09-09T11:02:01;100782.16;;;15.96;100.00
68580;BME280;55555;52.136;5.424;2022-09-09T11:04:56;100776.31;;;16.04;100.00
68580;BME280;55555;52.136;5.424;2022-09-09T11:08:09;100770.69;;;16.38;100.00
68580;BME280;55555;52.136;5.424;2022-09-09T11:10:55;100776.19;;;16.43;100.00
68580;BME280;55555;52.136;5.424;2022-09-09T11:13:47;100762.44;;;16.54;100.00
68580;BME280;55555;52.136;5.424;2022-09-09T11:16:41;100761.88;;;16.79;100.00
68580;BME280;55555;52.136;5.424;2022-09-09T11:19:19;100768.72;;;16.82;100.00
68580;BME280;55555;52.136;5.424;2022-09-09T11:21:57;100774.25;;;16.92;100.00
68580;BME280;55555;52.136;5.424;2022-09-09T11:24:34;100760.38;;;16.94;100.00
68580;BME280;55555;52.136;5.424;2022-09-09T11:27:19;100759.94;;;16.75;100.00
68580;BME280;55555;52.136;5.424;2022-09-09T11:33:26;100754.84;;;16.83;98.75
68580;BME280;55555;52.136;5.424;2022-09-09T11:36:13;100750.22;;;16.84;99.09
68580;BME280;55555;52.136;5.424;2022-09-09T11:39:09;100751.56;;;16.81;97.17
68580;BME280;55555;52.136;5.424;2022-09-09T11:41:49;100752.84;;;16.74;99.30
68580;BME280;55555;52.136;5.424;2022-09-09T11:44:20;100749.94;;;16.53;99.49
68580;BME280;55555;52.136;5.424;2022-09-09T11:46:53;100752.09;;;16.78;98.71
68580;BME280;55555;52.136;5.424;2022-09-09T11:49:40;100737.97;;;16.81;96.90
68580;BME280;55555;52.136;5.424;2022-09-09T11:52:24;100743.09;;;16.78;98.42
68580;BME280;55555;52.136;5.424;2022-09-09T11:57:59;100751.66;;;16.92;98.70
68580;BME280;55555;52.136;5.424;2022-09-09T12:00:33;100754.19;;;16.71;99.95
68580;BME280;55555;52.136;5.424;2022-09-09T12:03:04;100745.59;;;16.84;100.00
68580;BME280;55555;52.136;5.424;2022-09-09T12:05:40;100747.78;;;16.82;100.00
68580;BME280;55555;52.136;5.424;2022-09-09T12:08:11;100746.59;;;16.73;100.00
68580;BME280;55555;52.136;5.424;2022-09-09T12:10:53;100746.28;;;16.70;100.00
68580;BME280;55555;52.136;5.424;2022-09-09T12:13:24;100752.03;;;16.73;100.00
68580;BME280;55555;52.136;5.424;2022-09-09T12:15:58;100754.72;;;16.68;100.00
68580;BME280;55555;52.136;5.424;2022-09-09T12:18:34;100749.25;;;16.68;100.00
68580;BME280;55555;52.136;5.424;2022-09-09T12:21:34;100752.59;;;16.75;100.00
68580;BME280;55555;52.136;5.424;2022-09-09T12:24:32;100753.22;;;16.55;100.00
68580;BME280;55555;52.136;5.424;2022-09-09T12:27:20;100750.66;;;16.44;100.00
68580;BME280;55555;52.136;5.424;2022-09-09T12:30:03;100748.75;;;16.44;100.00
68580;BME280;55555;52.136;5.424;2022-09-09T12:32:36;100756.53;;;16.36;100.00
68580;BME280;55555;52.136;5.424;2022-09-09T12:35:11;100754.38;;;16.38;100.00
68580;BME280;55555;52.136;5.424;2022-09-09T12:37:48;100747.31;;;16.37;100.00
68580;BME280;55555;52.136;5.424;2022-09-09T12:40:31;100748.19;;;16.42;100.00
68580;BME280;55555;52.136;5.424;2022-09-09T12:43:22;100746.97;;;16.55;100.00
68580;BME280;55555;52.136;5.424;2022-09-09T12:45:54;100751.13;;;16.63;100.00
68580;BME280;55555;52.136;5.424;2022-09-09T12:48:30;100741.09;;;16.68;100.00
68580;BME280;55555;52.136;5.424;2022-09-09T12:51:28;100741.16;;;16.73;100.00
68580;BME280;55555;52.136;5.424;2022-09-09T12:53:58;100748.13;;;16.64;100.00
68580;BME280;55555;52.136;5.424;2022-09-09T12:56:28;100739.25;;;16.74;100.00
68580;BME280;55555;52.136;5.424;2022-09-09T12:58:57;100737.19;;;16.59;100.00
68580;BME280;55555;52.136;5.424;2022-09-09T13:01:30;100737.09;;;16.76;100.00
68580;BME280;55555;52.136;5.424;2022-09-09T13:04:00;100734.63;;;16.74;100.00
68580;BME280;55555;52.136;5.424;2022-09-09T13:06:29;100741.72;;;16.75;100.00
68580;BME280;55555;52.136;5.424;2022-09-09T13:09:00;100739.13;;;16.91;100.00
68580;BME280;55555;52.136;5.424;2022-09-09T13:11:36;100743.75;;;16.90;100.00
68580;BME280;55555;52.136;5.424;2022-09-09T13:14:06;100742.59;;;17.13;100.00
68580;BME280;55555;52.136;5.424;2022-09-09T13:16:39;100736.31;;;17.12;100.00
68580;BME280;55555;52.136;5.424;2022-09-09T13:19:13;100736.16;;;17.29;100.00
68580;BME280;55555;52.136;5.424;2022-09-09T13:21:41;100740.00;;;17.33;100.00
68580;BME280;55555;52.136;5.424;2022-09-09T13:24:31;100733.16;;;17.31;98.45
68580;BME280;55555;52.136;5.424;2022-09-09T13:27:01;100737.97;;;17.13;99.90
68580;BME280;55555;52.136;5.424;2022-09-09T13:29:31;100729.81;;;17.18;99.81
68580;BME280;55555;52.136;5.424;2022-09-09T13:32:16;100740.19;;;17.21;100.00
68580;BME280;55555;52.136;5.424;2022-09-09T13:35:23;100722.97;;;17.16;100.00
68580;BME280;55555;52.136;5.424;2022-09-09T13:37:50;100730.69;;;17.29;99.83
68580;BME280;55555;52.136;5.424;2022-09-09T13:40:22;100724.91;;;17.15;100.00
68580;BME280;55555;52.136;5.424;2022-09-09T13:42:55;100720.81;;;17.13;99.07
68580;BME280;55555;52.136;5.424;2022-09-09T13:45:24;100727.94;;;17.24;100.00
68580;BME280;55555;52.136;5.424;2022-09-09T13:47:55;100720.25;;;17.16;99.19
68580;BME280;55555;52.136;5.424;2022-09-09T13:50:30;100722.47;;;17.19;100.00
68580;BME280;55555;52.136;5.424;2022-09-09T13:52:58;100718.47;;;17.32;100.00
68580;BME280;55555;52.136;5.424;2022-09-09T13:55:29;100724.09;;;17.15;99.82
68580;BME280;55555;52.136;5.424;2022-09-09T13:58:03;100719.22;;;17.22;99.31
68580;BME280;55555;52.136;5.424;2022-09-09T14:00:33;100735.19;;;17.08;98.40
68580;BME280;55555;52.136;5.424;2022-09-09T14:03:00;100723.50;;;17.08;99.04
68580;BME280;55555;52.136;5.424;2022-09-09T14:05:30;100724.09;;;17.15;97.90
68580;BME280;55555;52.136;5.424;2022-09-09T14:07:59;100722.19;;;17.20;99.03
68580;BME280;55555;52.136;5.424;2022-09-09T14:10:27;100720.50;;;17.09;98.32
68580;BME280;55555;52.136;5.424;2022-09-09T14:12:54;100716.75;;;17.15;99.19
68580;BME280;55555;52.136;5.424;2022-09-09T14:15:20;100720.00;;;17.17;98.73
68580;BME280;55555;52.136;5.424;2022-09-09T14:17:48;100717.56;;;17.21;99.59
68580;BME280;55555;52.136;5.424;2022-09-09T14:20:15;100718.03;;;17.08;100.00
68580;BME280;55555;52.136;5.424;2022-09-09T14:22:43;100719.72;;;17.19;99.93
68580;BME280;55555;52.136;5.424;2022-09-09T14:25:10;100714.28;;;17.19;98.79
68580;BME280;55555;52.136;5.424;2022-09-09T14:27:39;100709.06;;;17.07;100.00
68580;BME280;55555;52.136;5.424;2022-09-09T14:30:08;100717.53;;;17.11;99.65
68580;BME280;55555;52.136;5.424;2022-09-09T14:32:36;100712.31;;;17.04;100.00
68580;BME280;55555;52.136;5.424;2022-09-09T14:35:03;100711.81;;;17.17;99.30
68580;BME280;55555;52.136;5.424;2022-09-09T14:37:30;100716.16;;;17.08;100.00
68580;BME280;55555;52.136;5.424;2022-09-09T14:39:57;100717.97;;;16.98;100.00
68580;BME280;55555;52.136;5.424;2022-09-09T14:42:24;100711.09;;;16.90;100.00
68580;BME280;55555;52.136;5.424;2022-09-09T14:44:52;100724.88;;;16.78;100.00